createdAt,value
2023-03-13T00:00:06.503Z,1.38
2023-03-13T00:02:36.663Z,1.40
2023-03-13T00:05:07.098Z,1.05
2023-03-13T00:07:37.376Z,1.20
2023-03-13T00:10:08.083Z,1.35
2023-03-13T00:12:40.909Z,1.30
2023-03-13T00:15:11.952Z,1.23
2023-03-13T00:17:42.187Z,0.90
2023-03-13T00:20:13.364Z,1.23
2023-03-13T00:22:43.581Z,1.13
2023-03-13T00:25:13.797Z,1.38
2023-03-13T00:27:46.685Z,1.35
2023-03-13T00:30:17.366Z,1.42
2023-03-13T00:32:48.683Z,1.17
2023-03-13T00:35:19.550Z,1.20
2023-03-13T00:37:51.030Z,1.67
2023-03-13T00:40:21.710Z,1.25
2023-03-13T00:42:54.559Z,1.45
2023-03-13T00:45:24.815Z,1.58
2023-03-13T00:47:55.024Z,1.15
2023-03-13T00:50:25.480Z,1.27
2023-03-13T00:52:55.697Z,1.40
2023-03-13T00:55:25.926Z,1.17
2023-03-13T00:57:58.989Z,0.68
2023-03-13T01:00:29.294Z,1.58
2023-03-13T01:03:00.695Z,1.48
2023-03-13T01:05:31.125Z,1.25
2023-03-13T01:08:03.037Z,0.90
2023-03-13T01:10:33.528Z,1.23
2023-03-13T01:13:07.599Z,0.70
2023-03-13T01:15:38.793Z,1.15
2023-03-13T01:18:09.126Z,1.02
2023-03-13T01:20:40.982Z,1.17
2023-03-13T01:23:11.599Z,1.30
2023-03-13T01:25:42.117Z,1.95
2023-03-13T01:28:15.008Z,1.90
2023-03-13T01:30:45.363Z,0.82
2023-03-13T01:33:15.614Z,1.05
2023-03-13T01:35:45.918Z,0.95
2023-03-13T01:38:17.200Z,0.93
2023-03-13T01:40:49.154Z,1.52
2023-03-13T01:43:26.868Z,1.67
2023-03-13T01:46:04.332Z,1.00
2023-03-13T01:48:46.681Z,1.20
2023-03-13T01:51:24.041Z,0.85
2023-03-13T01:53:57.573Z,1.23
2023-03-13T01:56:32.650Z,1.27
2023-03-13T01:59:06.173Z,1.17
2023-03-13T02:01:36.944Z,1.63
2023-03-13T02:04:09.425Z,0.95
2023-03-13T02:06:44.247Z,0.82
2023-03-13T02:09:18.018Z,0.65
2023-03-13T02:11:52.739Z,1.42
2023-03-13T02:14:27.026Z,0.95
2023-03-13T02:16:58.828Z,1.20
2023-03-13T02:19:33.945Z,1.10
2023-03-13T02:22:14.830Z,1.10
2023-03-13T02:24:52.253Z,0.95
2023-03-13T02:27:25.464Z,0.95
2023-03-13T02:29:56.641Z,1.00
2023-03-13T02:32:27.123Z,1.30
2023-03-13T02:34:58.784Z,1.10
2023-03-13T02:37:30.517Z,0.73
2023-03-13T02:40:05.733Z,1.42
2023-03-13T02:42:38.736Z,1.23
2023-03-13T02:45:09.538Z,0.82
2023-03-13T02:47:39.794Z,1.45
2023-03-13T02:50:11.320Z,1.10
2023-03-13T02:52:45.391Z,1.00
2023-03-13T02:55:22.577Z,0.93
2023-03-13T02:57:55.838Z,1.63
2023-03-13T03:00:27.697Z,1.10
2023-03-13T03:02:58.774Z,0.88
2023-03-13T03:05:29.047Z,1.05
2023-03-13T03:08:00.486Z,1.27
2023-03-13T03:10:32.310Z,1.35
2023-03-13T03:13:05.154Z,1.02
2023-03-13T03:15:35.427Z,0.80
2023-03-13T03:18:06.738Z,1.10
2023-03-13T03:20:37.002Z,1.35
2023-03-13T03:23:07.490Z,0.93
2023-03-13T03:25:37.714Z,0.80
2023-03-13T03:28:10.862Z,1.30
2023-03-13T03:30:42.018Z,1.50
2023-03-13T03:33:12.265Z,1.20
2023-03-13T03:35:42.575Z,1.08
2023-03-13T03:38:13.133Z,0.88
2023-03-13T03:40:43.359Z,1.30
2023-03-13T03:43:16.360Z,0.98
2023-03-13T03:45:46.636Z,1.90
2023-03-13T03:48:17.649Z,1.20
2023-03-13T03:50:48.243Z,1.30
2023-03-13T03:53:20.551Z,1.35
2023-03-13T03:55:50.959Z,1.20
2023-03-13T03:58:24.063Z,1.20
2023-03-13T04:01:08.125Z,1.10
2023-03-13T04:03:38.425Z,0.80
2023-03-13T04:06:10.144Z,1.48
2023-03-13T04:08:40.478Z,1.42
2023-03-13T04:11:12.349Z,1.38
2023-03-13T04:13:48.397Z,1.27
2023-03-13T04:16:18.839Z,1.48
2023-03-13T04:18:50.471Z,1.63
2023-03-13T04:21:21.659Z,1.38
2023-03-13T04:24:05.584Z,1.10
2023-03-13T04:26:37.684Z,0.95
2023-03-13T04:29:10.428Z,0.95
2023-03-13T04:32:12.779Z,0.93
2023-03-13T04:34:53.729Z,0.80
2023-03-13T04:37:48.687Z,0.90
2023-03-13T04:40:51.339Z,1.35
2023-03-13T04:43:41.941Z,1.02
2023-03-13T04:46:35.677Z,1.63
2023-03-13T04:49:18.359Z,0.63
2023-03-13T04:52:00.582Z,2.65
2023-03-13T04:54:31.138Z,1.20
2023-03-13T04:57:21.469Z,2.25
2023-03-13T04:59:57.804Z,1.40
2023-03-13T05:02:39.023Z,1.15
2023-03-13T05:05:27.620Z,0.88
2023-03-13T05:08:17.971Z,1.25
2023-03-13T05:11:03.397Z,1.15
2023-03-13T05:13:56.796Z,0.80
2023-03-13T05:16:40.272Z,0.93
2023-03-13T05:19:31.547Z,0.90
2023-03-13T05:22:24.869Z,0.90
2023-03-13T05:25:13.714Z,0.90
2023-03-13T05:28:00.086Z,0.82
2023-03-13T05:30:53.528Z,1.33
2023-03-13T05:33:41.602Z,1.15
2023-03-13T05:36:25.195Z,0.77
2023-03-13T05:39:24.902Z,0.90
2023-03-13T05:42:06.570Z,1.48
2023-03-13T05:44:54.906Z,0.90
2023-03-13T05:47:43.796Z,0.98
2023-03-13T05:50:30.633Z,0.55
2023-03-13T05:53:22.052Z,1.23
2023-03-13T05:56:10.623Z,1.15
2023-03-13T05:59:06.453Z,0.85
2023-03-13T06:01:58.700Z,1.10
2023-03-13T06:04:40.722Z,1.33
2023-03-13T06:07:11.034Z,1.30
2023-03-13T06:09:43.722Z,0.93
2023-03-13T06:12:15.012Z,1.85
2023-03-13T06:14:45.385Z,1.38
2023-03-13T06:17:25.591Z,0.85
2023-03-13T06:19:56.007Z,1.42
2023-03-13T06:22:26.359Z,0.90
2023-03-13T06:24:58.871Z,1.02
2023-03-13T06:27:29.177Z,0.90
2023-03-13T06:29:59.429Z,1.40
2023-03-13T06:32:29.807Z,1.23
2023-03-13T06:35:00.185Z,1.45
2023-03-13T06:37:30.443Z,1.40
2023-03-13T06:40:04.747Z,1.45
2023-03-13T06:45:05.779Z,1.13
2023-03-13T06:47:36.034Z,1.38
2023-03-13T06:50:06.394Z,1.13
2023-03-13T06:52:43.967Z,1.38
2023-03-13T06:55:17.439Z,1.92
2023-03-13T06:57:48.021Z,2.20
2023-03-13T07:00:18.976Z,1.65
2023-03-13T07:02:49.186Z,1.75
2023-03-13T07:05:19.492Z,1.52
2023-03-13T07:07:49.797Z,1.52
2023-03-13T07:10:24.597Z,1.00
2023-03-13T07:12:55.355Z,0.90
2023-03-13T07:15:25.556Z,0.88
2023-03-13T07:17:55.779Z,3.28
2023-03-13T07:20:26.033Z,1.00
2023-03-13T07:22:56.545Z,1.65
2023-03-13T07:25:29.025Z,0.52
2023-03-13T07:28:01.111Z,1.23
2023-03-13T07:30:31.501Z,1.15
2023-03-13T07:33:02.056Z,1.92
2023-03-13T07:35:32.273Z,0.90
2023-03-13T07:38:02.469Z,0.75
2023-03-13T07:40:34.948Z,0.80
2023-03-13T07:43:05.168Z,0.88
2023-03-13T07:45:35.342Z,1.42
2023-03-13T07:48:05.639Z,4.07
2023-03-13T07:50:35.891Z,2.10
2023-03-13T07:53:07.121Z,1.20
2023-03-13T07:55:39.757Z,2.05
2023-03-13T07:58:10.349Z,1.42
2023-03-13T08:00:40.574Z,1.58
2023-03-13T08:03:11.154Z,1.70
2023-03-13T08:05:41.474Z,1.20
2023-03-13T08:08:11.687Z,1.25
2023-03-13T08:10:45.199Z,1.60
2023-03-13T08:13:15.123Z,1.30
2023-03-13T08:15:45.373Z,1.27
2023-03-13T08:18:15.614Z,1.20
2023-03-13T08:20:45.937Z,1.00
2023-03-13T08:23:16.141Z,1.10
2023-03-13T08:25:48.802Z,1.15
2023-03-13T08:28:19.149Z,1.17
2023-03-13T08:30:49.428Z,1.88
2023-03-13T08:33:19.659Z,1.05
2023-03-13T08:35:50.140Z,1.08
2023-03-13T08:38:20.451Z,1.00
2023-03-13T08:40:53.589Z,1.33
2023-03-13T08:43:23.844Z,0.85
2023-03-13T08:45:57.927Z,0.65
2023-03-13T08:48:30.944Z,0.88
2023-03-13T08:51:05.584Z,0.90
2023-03-13T08:53:36.561Z,1.65
2023-03-13T08:56:10.909Z,0.95
2023-03-13T09:01:13.299Z,2.22
2023-03-13T09:03:43.723Z,1.40
2023-03-13T09:06:14.687Z,2.80
2023-03-13T09:08:45.307Z,2.80
2023-03-13T09:11:19.676Z,1.30
2023-03-13T09:16:21.888Z,0.80
2023-03-13T09:18:52.842Z,0.73
2023-03-13T09:21:24.874Z,0.82
2023-03-13T09:23:55.460Z,0.70
2023-03-13T09:26:28.384Z,0.40
2023-03-13T09:28:58.913Z,0.73
2023-03-13T09:31:30.965Z,0.50
2023-03-13T09:34:01.725Z,0.70
2023-03-13T09:36:32.049Z,0.80
2023-03-13T09:39:03.567Z,0.50
2023-03-13T09:41:42.051Z,0.50
2023-03-13T09:44:18.776Z,0.47
2023-03-13T09:46:52.169Z,0.60
2023-03-13T09:49:32.646Z,0.67
2023-03-13T09:52:05.987Z,0.50
2023-03-13T09:54:39.630Z,0.33
2023-03-13T09:57:18.976Z,0.30
2023-03-13T09:59:56.269Z,0.35
2023-03-13T10:02:33.458Z,0.68
2023-03-13T10:05:07.068Z,0.55
2023-03-13T10:07:37.306Z,0.32
2023-03-13T10:10:08.115Z,0.32
2023-03-13T10:12:46.940Z,0.20
2023-03-13T10:15:33.428Z,0.10
2023-03-13T10:18:09.855Z,0.10
2023-03-13T10:20:39.857Z,0.13
2023-03-13T10:23:15.884Z,0.15
2023-03-13T10:25:45.882Z,0.13
2023-03-13T10:28:22.586Z,0.03
2023-03-13T10:30:54.614Z,0.17
2023-03-13T10:33:29.522Z,0.30
2023-03-13T10:36:05.284Z,0.22
2023-03-13T10:38:38.678Z,0.20
2023-03-13T10:41:20.870Z,0.20
2023-03-13T10:43:58.202Z,0.10
2023-03-13T10:46:29.933Z,0.10
2023-03-13T10:49:03.402Z,0.30
2023-03-13T10:51:40.558Z,0.30
2023-03-13T10:54:18.940Z,0.30
2023-03-13T10:56:49.848Z,0.10
2023-03-13T10:59:31.214Z,0.13
2023-03-13T11:02:03.902Z,0.20
2023-03-13T11:04:37.576Z,0.05
2023-03-13T11:07:09.660Z,0.10
2023-03-13T11:09:39.883Z,0.10
2023-03-13T11:12:17.867Z,0.35
2023-03-13T11:14:50.633Z,0.17
2023-03-13T11:17:31.588Z,0.50
2023-03-13T11:20:09.644Z,0.20
2023-03-13T11:22:56.319Z,0.10
2023-03-13T11:25:33.791Z,0.00
2023-03-13T11:28:20.604Z,0.20
2023-03-13T11:31:05.812Z,0.10
2023-03-13T11:33:51.143Z,0.20
2023-03-13T11:36:25.780Z,0.10
2023-03-13T11:39:02.078Z,0.22
2023-03-13T11:41:52.409Z,0.20
2023-03-13T11:44:34.530Z,0.20
2023-03-13T11:47:35.238Z,0.25
2023-03-13T11:50:31.347Z,0.10
2023-03-13T11:53:25.356Z,0.28
2023-03-13T11:56:09.718Z,0.30
2023-03-13T11:59:07.436Z,0.10
2023-03-13T12:01:40.861Z,0.50
2023-03-13T12:04:20.258Z,0.20
2023-03-13T12:06:55.454Z,0.20
2023-03-13T12:09:31.787Z,0.15
2023-03-13T12:12:06.075Z,0.20
2023-03-13T12:14:40.720Z,0.32
2023-03-13T12:17:16.530Z,0.40
2023-03-13T12:19:53.246Z,0.55
2023-03-13T12:22:27.496Z,0.47
2023-03-13T12:25:06.282Z,0.57
2023-03-13T12:27:39.595Z,0.35
2023-03-13T12:30:18.218Z,0.23
2023-03-13T12:33:04.751Z,0.40
2023-03-13T12:35:40.360Z,0.20
2023-03-13T12:38:18.125Z,0.30
2023-03-13T12:40:53.610Z,0.47
2023-03-13T12:43:28.404Z,0.43
2023-03-13T12:46:14.939Z,0.40
2023-03-13T12:49:15.948Z,0.38
2023-03-13T12:52:03.859Z,0.85
2023-03-13T12:54:47.363Z,0.25
2023-03-13T12:57:32.461Z,0.40
2023-03-13T13:00:05.824Z,0.60
2023-03-13T13:02:36.068Z,0.47
2023-03-13T13:05:06.389Z,0.17
2023-03-13T13:07:40.889Z,0.32
2023-03-13T13:10:25.257Z,0.10
2023-03-13T13:13:28.156Z,0.45
2023-03-13T13:16:04.167Z,0.40
2023-03-13T13:18:35.633Z,0.50
2023-03-13T13:21:33.586Z,0.32
2023-03-13T13:24:43.762Z,0.80
2023-03-13T13:27:37.312Z,0.40
2023-03-13T13:30:28.399Z,0.52
2023-03-13T13:33:36.068Z,0.50
2023-03-13T13:36:33.264Z,0.30
2023-03-13T13:39:03.602Z,0.30
2023-03-13T13:41:39.498Z,0.40
2023-03-13T13:44:29.192Z,0.47
2023-03-13T13:47:02.199Z,0.68
2023-03-13T13:49:53.017Z,0.63
2023-03-13T13:52:36.052Z,0.65
2023-03-13T13:55:22.447Z,0.30
2023-03-13T13:57:52.499Z,0.45
2023-03-13T14:00:26.357Z,0.63
2023-03-13T14:05:32.242Z,0.40
2023-03-13T14:08:07.706Z,0.32
2023-03-13T14:10:42.018Z,0.50
2023-03-13T14:13:17.392Z,0.60
2023-03-13T14:15:49.420Z,0.30
2023-03-13T14:18:25.018Z,0.32
2023-03-13T14:21:00.535Z,0.22
2023-03-13T14:23:42.455Z,0.35
2023-03-13T14:26:17.826Z,0.50
2023-03-13T14:28:50.158Z,0.32
2023-03-13T14:31:29.139Z,0.55
2023-03-13T14:34:00.656Z,0.45
2023-03-13T14:36:33.705Z,0.43
2023-03-13T14:39:03.867Z,0.53
2023-03-13T14:41:38.795Z,0.50
2023-03-13T14:44:16.502Z,0.32
2023-03-13T14:46:47.240Z,0.60
2023-03-13T14:49:21.424Z,0.55
2023-03-13T14:52:03.198Z,0.40
2023-03-13T14:54:35.415Z,0.30
2023-03-13T14:57:16.810Z,0.40
2023-03-13T14:59:46.974Z,0.60
2023-03-13T15:02:21.878Z,0.80
2023-03-13T15:05:01.314Z,0.35
2023-03-13T15:07:42.017Z,0.40
2023-03-13T15:10:22.654Z,0.40
2023-03-13T15:12:53.269Z,0.47
2023-03-13T15:15:23.182Z,0.85
2023-03-13T15:17:53.127Z,0.50
2023-03-13T15:20:23.290Z,0.30
2023-03-13T15:22:55.867Z,0.40
2023-03-13T15:25:26.829Z,0.50
2023-03-13T15:27:56.748Z,0.57
2023-03-13T15:30:26.736Z,0.45
2023-03-13T15:32:56.849Z,0.50
2023-03-13T15:35:30.110Z,0.68
2023-03-13T15:38:04.910Z,0.57
2023-03-13T15:40:34.930Z,0.40
2023-03-13T15:43:04.897Z,0.28
2023-03-13T15:45:34.864Z,1.52
2023-03-13T15:48:05.018Z,0.35
2023-03-13T15:50:35.041Z,0.52
2023-03-13T15:53:09.772Z,1.10
2023-03-13T15:55:40.254Z,0.80
2023-03-13T15:58:13.423Z,0.98
2023-03-13T16:00:44.043Z,0.57
2023-03-13T16:03:19.320Z,0.60
2023-03-13T16:05:50.898Z,0.40
2023-03-13T16:08:35.190Z,0.20
2023-03-13T16:11:06.682Z,0.38
2023-03-13T16:13:36.699Z,0.50
2023-03-13T16:16:16.559Z,0.43
2023-03-13T16:18:46.650Z,0.40
2023-03-13T16:21:20.459Z,0.38
2023-03-13T16:23:53.300Z,0.50
2023-03-13T16:26:25.014Z,0.95
2023-03-13T16:28:56.201Z,0.70
2023-03-13T16:31:28.514Z,0.82
2023-03-13T16:33:59.832Z,0.30
2023-03-13T16:36:32.024Z,0.38
2023-03-13T16:39:09.008Z,0.60
2023-03-13T16:41:39.119Z,0.82
2023-03-13T16:44:09.371Z,0.63
2023-03-13T16:46:41.243Z,1.10
2023-03-13T16:49:17.432Z,0.95
2023-03-13T16:51:47.570Z,0.63
2023-03-13T16:54:20.046Z,1.20
2023-03-13T16:56:49.979Z,0.63
2023-03-13T16:59:21.755Z,0.52
2023-03-13T17:01:52.386Z,0.32
2023-03-13T17:04:22.351Z,0.75
2023-03-13T17:06:52.895Z,0.88
2023-03-13T17:09:25.439Z,1.00
2023-03-13T17:11:55.391Z,0.88
2023-03-13T17:14:25.275Z,1.70
2023-03-13T17:16:55.263Z,2.20
2023-03-13T17:19:25.119Z,2.42
2023-03-13T17:21:54.994Z,1.70
2023-03-13T17:24:27.481Z,0.60
2023-03-13T17:26:57.440Z,0.63
2023-03-13T17:29:27.346Z,0.52
2023-03-13T17:31:57.325Z,0.30
2023-03-13T17:34:30.391Z,0.50
2023-03-13T17:37:06.160Z,0.37
2023-03-13T17:39:41.561Z,0.60
2023-03-13T17:42:11.465Z,0.75
2023-03-13T17:44:44.689Z,1.20
2023-03-13T17:47:19.615Z,0.50
2023-03-13T17:49:49.575Z,0.70
2023-03-13T17:52:20.364Z,0.40
2023-03-13T17:54:53.906Z,1.20
2023-03-13T17:57:25.708Z,1.02
2023-03-13T17:59:55.737Z,0.90
2023-03-13T18:02:27.548Z,0.63
2023-03-13T18:05:00.329Z,0.60
2023-03-13T18:07:31.916Z,0.68
2023-03-13T18:10:04.647Z,1.30
2023-03-13T18:12:34.884Z,1.23
2023-03-13T18:15:04.833Z,0.77
2023-03-13T18:17:34.971Z,0.98
2023-03-13T18:20:09.986Z,1.00
2023-03-13T18:22:40.224Z,0.70
2023-03-13T18:25:13.378Z,0.77
2023-03-13T18:27:43.530Z,0.30
2023-03-13T18:30:18.880Z,0.75
2023-03-13T18:32:49.227Z,1.00
2023-03-13T18:35:20.490Z,0.98
2023-03-13T18:37:50.955Z,0.70
2023-03-13T18:40:25.889Z,1.05
2023-03-13T18:42:55.916Z,0.95
2023-03-13T18:45:27.687Z,1.17
2023-03-13T18:47:57.768Z,1.48
2023-03-13T18:50:29.986Z,1.27
2023-03-13T18:53:02.386Z,1.02
2023-03-13T18:55:35.049Z,0.63
2023-03-13T18:58:05.338Z,1.10
2023-03-13T19:00:37.207Z,0.95
2023-03-13T19:03:07.176Z,2.25
2023-03-13T19:05:37.165Z,1.02
2023-03-13T19:08:07.464Z,1.30
2023-03-13T19:10:40.432Z,1.70
2023-03-13T19:13:10.390Z,1.77
2023-03-13T19:15:40.932Z,1.10
2023-03-13T19:18:14.865Z,1.40
2023-03-13T19:20:45.055Z,2.03
2023-03-13T19:23:14.955Z,1.23
2023-03-13T19:25:47.482Z,1.20
2023-03-13T19:28:17.369Z,0.82
2023-03-13T19:30:47.746Z,0.77
2023-03-13T19:33:17.597Z,4.32
2023-03-13T19:35:47.504Z,1.83
2023-03-13T19:38:17.719Z,1.60
2023-03-13T19:40:50.266Z,1.15
2023-03-13T19:43:20.135Z,1.10
2023-03-13T19:45:50.509Z,0.90
2023-03-13T19:48:20.361Z,1.50
2023-03-13T19:50:50.300Z,4.50
2023-03-13T19:53:20.149Z,4.00
2023-03-13T19:55:52.671Z,2.08
2023-03-13T19:58:22.937Z,1.90
2023-03-13T20:00:53.150Z,1.10
2023-03-13T20:03:24.072Z,1.40
2023-03-13T20:05:54.536Z,2.20
2023-03-13T20:08:25.033Z,2.13
2023-03-13T20:10:57.747Z,1.20
2023-03-13T20:13:28.044Z,2.38
2023-03-13T20:15:58.424Z,1.42
2023-03-13T20:18:28.656Z,1.08
2023-03-13T20:20:58.839Z,1.08
2023-03-13T20:23:29.087Z,0.82
2023-03-13T20:26:06.028Z,1.08
2023-03-13T20:28:36.478Z,0.80
2023-03-13T20:31:06.768Z,1.48
2023-03-13T20:33:37.376Z,2.67
2023-03-13T20:36:10.505Z,1.13
2023-03-13T20:38:41.013Z,0.77
2023-03-13T20:41:14.288Z,0.77
2023-03-13T20:43:44.353Z,1.50
2023-03-13T20:46:14.604Z,1.48
2023-03-13T20:48:44.932Z,1.23
2023-03-13T20:51:15.133Z,1.50
2023-03-13T20:53:47.524Z,1.27
2023-03-13T20:56:20.450Z,1.45
2023-03-13T20:58:50.667Z,1.73
2023-03-13T21:01:22.356Z,1.90
2023-03-13T21:03:52.699Z,1.48
2023-03-13T21:06:23.117Z,2.53
2023-03-13T21:08:53.324Z,2.38
2023-03-13T21:11:27.030Z,2.13
2023-03-13T21:13:57.206Z,2.72
2023-03-13T21:16:27.484Z,2.03
2023-03-13T21:18:57.841Z,1.60
2023-03-13T21:21:29.341Z,1.85
2023-03-13T21:23:59.560Z,1.50
2023-03-13T21:26:32.362Z,1.85
2023-03-13T21:31:25.068Z,1.60
2023-03-13T21:33:55.373Z,2.03
2023-03-13T21:36:25.983Z,2.30
2023-03-13T21:38:56.206Z,2.50
2023-03-13T21:41:26.508Z,2.67
2023-03-13T21:43:57.067Z,2.58
2023-03-13T21:46:33.108Z,2.58
2023-03-13T21:49:03.800Z,3.20
2023-03-13T21:51:34.309Z,2.17
2023-03-13T21:54:04.479Z,2.60
2023-03-13T21:56:34.699Z,3.38
2023-03-13T21:59:05.464Z,1.90
2023-03-13T22:01:38.310Z,2.80
2023-03-13T22:04:08.485Z,1.70
2023-03-13T22:06:38.789Z,3.13
2023-03-13T22:09:09.341Z,1.30
2023-03-13T22:11:39.535Z,1.25
2023-03-13T22:14:09.947Z,0.70
2023-03-13T22:16:42.675Z,1.00
2023-03-13T22:19:17.395Z,0.70
2023-03-13T22:21:47.644Z,0.93
2023-03-13T22:24:17.818Z,1.00
2023-03-13T22:26:48.026Z,0.60
2023-03-13T22:29:17.899Z,0.82
2023-03-13T22:31:50.435Z,0.75
2023-03-13T22:34:20.340Z,0.60
2023-03-13T22:36:50.527Z,0.50
2023-03-13T22:39:20.757Z,0.32
2023-03-13T22:41:50.998Z,0.55
2023-03-13T22:44:21.703Z,0.60
2023-03-13T22:46:54.260Z,0.75
2023-03-13T22:49:24.711Z,0.70
2023-03-13T22:51:54.623Z,0.40
2023-03-13T22:54:24.475Z,0.47
2023-03-13T22:56:54.704Z,0.43
2023-03-13T22:59:24.738Z,0.43
2023-03-13T23:01:57.235Z,0.50
2023-03-13T23:04:27.095Z,0.20
2023-03-13T23:06:57.325Z,0.95
2023-03-13T23:09:27.504Z,0.30
2023-03-13T23:11:57.650Z,0.10
2023-03-13T23:14:30.316Z,0.20
2023-03-13T23:17:03.457Z,0.38
2023-03-13T23:19:36.886Z,0.25
2023-03-13T23:22:07.070Z,0.30
2023-03-13T23:24:37.255Z,0.20
2023-03-13T23:27:07.985Z,0.20
2023-03-13T23:29:38.188Z,0.10
2023-03-13T23:32:10.778Z,0.10
2023-03-13T23:34:40.686Z,0.20
2023-03-13T23:37:10.897Z,0.10
2023-03-13T23:39:41.088Z,0.08
2023-03-13T23:42:11.099Z,0.00
2023-03-13T23:44:41.402Z,0.10
2023-03-13T23:47:13.964Z,0.20
2023-03-13T23:49:44.127Z,0.20
2023-03-13T23:52:14.131Z,0.10
2023-03-13T23:54:44.410Z,0.32
2023-03-13T23:57:14.711Z,0.10
2023-03-13T23:59:44.767Z,0.10
